Time;durP1;ratioP1;P1;durP2;ratioP2;P2;SDS_P1;SDS_P2;PMS_P1;PMS_P2;Temp;Humidity;BMP_temperature;BMP_pressure;BME280_temperature;BME280_humidity;BME280_pressure;Samples;Min_cycle;Max_cycle;Signal;HPM_P1;HPM_P2
2023/08/25 04:31:46;;;;;;;;;26.00;24.00;;;;;33.42;45.09;100383.19;5370165;22;47036;-63
2023/08/25 04:34:12;;;;;;;;;27.00;24.25;;;;;33.40;45.69;100377.88;5038784;28;45322;-63
2023/08/25 04:36:39;;;;;;;;;27.00;26.50;;;;;33.44;45.30;100367.97;5038330;28;56400;-63
2023/08/25 04:39:04;;;;;;;;;30.50;28.50;;;;;33.42;45.54;100370.16;5038450;28;45565;-63
2023/08/25 04:41:30;;;;;;;;;27.50;24.75;;;;;33.40;45.43;100371.44;5021144;28;45426;-64
2023/08/25 04:43:55;;;;;;;;;28.75;25.00;;;;;33.40;45.54;100363.97;5039024;28;45348;-63
2023/08/25 04:46:20;;;;;;;;;31.75;30.75;;;;;33.22;45.36;100365.84;5039072;28;45786;-63
2023/08/25 04:48:46;;;;;;;;;32.75;30.75;;;;;33.15;45.58;100371.44;5038445;28;45340;-63
2023/08/25 04:51:14;;;;;;;;;34.50;31.00;;;;;33.08;46.19;100369.78;5038856;28;46085;-63
2023/08/25 04:53:40;;;;;;;;;33.00;31.75;;;;;33.03;46.23;100367.66;5039012;28;45218;-63
2023/08/25 04:56:06;;;;;;;;;31.00;29.50;;;;;32.95;46.02;100370.72;5039111;28;45257;-64
2023/08/25 04:58:31;;;;;;;;;34.50;32.25;;;;;32.84;46.35;100380.63;5038626;28;45426;-62
2023/08/25 05:00:57;;;;;;;;;39.75;34.00;;;;;32.71;47.00;100372.41;5038651;28;45950;-64
2023/08/25 05:03:22;;;;;;;;;42.50;35.25;;;;;32.71;46.90;100366.84;5038672;28;45269;-62
2023/08/25 05:05:47;;;;;;;;;37.75;34.25;;;;;32.69;47.11;100367.06;5038760;28;45714;-62
2023/08/25 05:08:13;;;;;;;;;30.00;30.00;;;;;32.69;46.70;100363.44;5038712;28;45208;-63
2023/08/25 05:10:38;;;;;;;;;38.50;34.25;;;;;32.65;46.97;100367.72;5037930;28;45315;-63
2023/08/25 05:13:03;;;;;;;;;33.50;31.25;;;;;32.50;47.69;100361.59;5038295;28;55711;-64
2023/08/25 05:15:29;;;;;;;;;31.50;31.50;;;;;32.53;47.42;100353.69;5038913;28;45215;-63
2023/08/25 05:17:54;;;;;;;;;39.25;33.75;;;;;32.44;48.05;100356.94;5038287;28;45296;-65
2023/08/25 05:20:23;;;;;;;;;38.50;34.75;;;;;32.57;47.28;100376.31;5038472;28;45992;-63
2023/08/25 05:22:50;;;;;;;;;37.75;36.00;;;;;32.49;47.93;100382.97;5038329;28;45337;-62
2023/08/25 05:25:16;;;;;;;;;49.50;40.25;;;;;32.41;47.64;100385.16;5038398;28;45412;-64
2023/08/25 05:27:42;;;;;;;;;50.75;38.00;;;;;32.36;47.81;100380.25;5038081;28;45611;-63
2023/08/25 05:30:07;;;;;;;;;45.50;37.75;;;;;32.40;47.76;100381.53;5038083;28;45238;-63
2023/08/25 05:32:33;;;;;;;;;43.50;37.25;;;;;32.39;48.09;100384.53;5020118;28;45326;-63
2023/08/25 05:34:58;;;;;;;;;49.25;40.50;;;;;32.31;48.50;100396.72;5037099;28;45271;-63
2023/08/25 05:37:23;;;;;;;;;47.50;38.00;;;;;32.19;48.78;100401.25;5024445;28;46867;-63
2023/08/25 05:39:49;;;;;;;;;40.00;36.50;;;;;32.14;49.06;100421.31;5036871;28;46256;-63
2023/08/25 05:42:15;;;;;;;;;50.75;39.75;;;;;32.09;48.79;100412.75;5038137;28;45372;-63
2023/08/25 05:44:40;;;;;;;;;46.75;40.50;;;;;31.97;49.45;100414.53;5026149;28;45474;-62
2023/08/25 05:47:05;;;;;;;;;50.00;42.25;;;;;31.94;48.94;100414.94;5037522;28;45476;-62
2023/08/25 05:49:31;;;;;;;;;51.50;41.75;;;;;31.90;48.78;100431.16;5040240;28;51901;-64
2023/08/25 05:51:56;;;;;;;;;52.00;41.00;;;;;31.90;48.64;100433.94;5041157;28;54519;-63
2023/08/25 05:54:21;;;;;;;;;40.50;36.00;;;;;31.86;49.20;100429.03;5044365;28;45342;-63
2023/08/25 05:56:47;;;;;;;;;49.50;38.50;;;;;31.96;49.02;100440.56;5040562;28;53847;-62
2023/08/25 05:59:12;;;;;;;;;56.25;45.75;;;;;31.92;49.23;100425.41;5041144;28;46046;-63
2023/08/25 06:01:37;;;;;;;;;51.25;41.75;;;;;31.90;48.60;100417.28;5041186;28;45410;-61
2023/08/25 06:04:03;;;;;;;;;47.75;39.50;;;;;31.91;48.31;100405.13;5041022;28;53466;-64
2023/08/25 06:06:30;;;;;;;;;50.00;42.00;;;;;31.97;48.81;100397.88;5040951;28;45280;-62
2023/08/25 06:08:55;;;;;;;;;47.00;38.00;;;;;31.98;48.83;100401.50;5041352;28;46923;-63
2023/08/25 06:11:22;;;;;;;;;37.75;35.00;;;;;32.08;48.15;100390.78;5041098;28;45469;-62
2023/08/25 06:13:47;;;;;;;;;42.25;36.75;;;;;32.14;47.76;100385.25;5041626;28;45364;-62
2023/08/25 06:16:13;;;;;;;;;44.00;37.00;;;;;32.18;47.70;100394.00;5041217;28;45627;-63
2023/08/25 06:18:38;;;;;;;;;40.00;36.75;;;;;32.31;47.48;100396.72;5040748;28;57245;-62
2023/08/25 06:21:03;;;;;;;;;41.50;35.50;;;;;32.40;46.80;100394.56;5040262;28;58501;-62
2023/08/25 06:23:28;;;;;;;;;34.75;33.25;;;;;32.46;46.56;100400.06;5041423;28;45211;-63
2023/08/25 06:25:54;;;;;;;;;41.50;35.50;;;;;32.51;46.98;100413.25;5040580;28;56620;-62
2023/08/25 06:28:20;;;;;;;;;44.75;38.75;;;;;32.71;46.27;100414.03;5041138;28;46938;-61
2023/08/25 06:30:49;;;;;;;;;38.00;35.00;;;;;32.63;46.32;100429.00;5040620;28;45378;-62
2023/08/25 06:33:14;;;;;;;;;44.50;37.00;;;;;32.68;46.15;100415.28;5040924;28;45290;-62
2023/08/25 06:35:40;;;;;;;;;43.50;36.50;;;;;32.54;46.18;100430.34;5040600;28;45285;-63
2023/08/25 06:38:05;;;;;;;;;46.50;37.75;;;;;32.25;47.05;100439.19;5038447;28;58416;-61
2023/08/25 06:40:33;;;;;;;;;40.50;36.50;;;;;32.14;46.86;100442.63;5040355;28;45274;-63
2023/08/25 06:42:59;;;;;;;;;42.00;36.25;;;;;32.12;47.30;100428.97;5040395;28;45165;-62
2023/08/25 06:45:24;;;;;;;;;36.25;32.25;;;;;32.11;47.04;100429.19;5040380;28;45958;-62
2023/08/25 06:47:50;;;;;;;;;39.50;34.50;;;;;32.10;47.25;100430.25;5030238;28;60450;-62
2023/08/25 06:50:15;;;;;;;;;34.75;33.75;;;;;32.04;47.24;100426.44;5039411;28;45425;-62
2023/08/25 06:52:40;;;;;;;;;38.75;33.00;;;;;31.91;47.27;100421.78;5040161;28;45331;-60
2023/08/25 06:55:06;;;;;;;;;35.50;33.00;;;;;31.83;47.76;100419.22;5040214;28;45313;-59
2023/08/25 06:57:34;;;;;;;;;35.25;32.00;;;;;31.75;47.40;100415.84;5039672;28;45742;-64
2023/08/25 06:59:59;;;;;;;;;35.00;33.75;;;;;31.70;47.47;100405.41;5039964;28;45388;-62
2023/08/25 07:02:24;;;;;;;;;32.50;31.50;;;;;31.68;48.22;100407.53;5040080;28;45305;-63
2023/08/25 07:04:50;;;;;;;;;30.25;29.25;;;;;31.74;47.72;100414.97;5039549;28;58694;-61
2023/08/25 07:07:25;;;;;;;;;32.75;29.25;;;;;31.73;47.47;100412.44;5040284;28;60270;-61
2023/08/25 07:09:51;;;;;;;;;28.00;28.00;;;;;31.64;47.91;100416.53;5021655;28;45406;-62
2023/08/25 07:12:16;;;;;;;;;29.00;28.00;;;;;31.55;47.92;100415.84;5036854;28;45313;-63
2023/08/25 07:14:42;;;;;;;;;27.50;26.75;;;;;31.66;47.77;100417.97;5021838;28;46891;-62
2023/08/25 07:17:08;;;;;;;;;25.25;22.25;;;;;31.63;47.55;100417.59;5039910;28;46427;-62
2023/08/25 07:19:33;;;;;;;;;22.50;19.50;;;;;31.68;47.49;100413.09;5039379;28;45332;-62
2023/08/25 07:21:58;;;;;;;;;21.75;20.50;;;;;31.82;47.26;100417.53;5039189;28;45344;-62
2023/08/25 07:24:24;;;;;;;;;25.75;23.00;;;;;31.81;47.26;100418.63;5039817;28;45281;-63
2023/08/25 07:26:49;;;;;;;;;22.00;20.25;;;;;31.88;46.89;100416.69;5039634;28;52827;-61
2023/08/25 07:29:14;;;;;;;;;15.75;15.50;;;;;32.04;46.35;100426.44;5038655;28;45578;-61
2023/08/25 07:31:40;;;;;;;;;22.00;20.75;;;;;32.09;46.20;100431.31;5039290;28;49441;-61
2023/08/25 07:34:05;;;;;;;;;18.25;17.75;;;;;32.22;46.27;100434.09;5038710;28;53454;-61
2023/08/25 07:36:30;;;;;;;;;17.75;17.00;;;;;32.36;46.05;100434.91;5039597;28;46612;-62
2023/08/25 07:38:56;;;;;;;;;19.25;17.00;;;;;32.30;45.30;100434.72;5039619;28;45487;-62
2023/08/25 07:41:22;;;;;;;;;19.75;18.75;;;;;32.14;45.59;100446.25;5037479;28;45412;-62
2023/08/25 07:43:48;;;;;;;;;21.00;19.25;;;;;32.07;45.60;100439.03;5039070;28;46024;-61
2023/08/25 07:46:14;;;;;;;;;19.50;18.00;;;;;31.89;46.05;100448.88;5039373;28;46335;-61
2023/08/25 07:48:39;;;;;;;;;19.25;17.50;;;;;31.82;46.42;100445.25;5039014;28;45487;-60
2023/08/25 07:51:04;;;;;;;;;18.00;18.00;;;;;31.75;46.60;100455.50;5039265;28;45383;-62
2023/08/25 07:53:31;;;;;;;;;18.75;16.25;;;;;31.71;46.51;100458.94;5039296;28;45273;-62
2023/08/25 07:55:58;;;;;;;;;18.25;16.50;;;;;31.83;46.31;100471.06;5039501;28;45502;-63
2023/08/25 07:58:23;;;;;;;;;22.75;18.50;;;;;31.73;46.31;100467.91;5038915;28;45275;-61
2023/08/25 08:00:49;;;;;;;;;18.00;16.25;;;;;31.68;46.73;100467.66;5039277;28;45400;-61
2023/08/25 08:03:15;;;;;;;;;18.75;18.00;;;;;31.77;46.35;100474.69;5038514;28;45432;-61
2023/08/25 08:05:41;;;;;;;;;18.00;18.00;;;;;31.84;46.21;100472.75;5038516;28;46884;-61
2023/08/25 08:08:09;;;;;;;;;19.25;18.75;;;;;31.90;46.43;100471.94;5038890;28;45234;-61
2023/08/25 08:10:35;;;;;;;;;19.50;18.50;;;;;31.95;45.97;100484.06;5038217;28;45399;-62
2023/08/25 08:13:02;;;;;;;;;21.50;19.00;;;;;31.82;46.30;100474.91;5038270;28;45472;-61
2023/08/25 08:15:27;;;;;;;;;17.00;17.00;;;;;31.88;46.73;100476.81;5038105;28;46028;-62
2023/08/25 08:17:52;;;;;;;;;16.75;16.75;;;;;31.84;46.87;100481.94;5038672;28;45321;-61
2023/08/25 08:20:18;;;;;;;;;14.50;12.50;;;;;31.88;46.82;100482.38;5038844;28;45332;-61
2023/08/25 08:22:43;;;;;;;;;12.25;12.25;;;;;31.93;46.33;100488.97;5038610;28;45522;-62
2023/08/25 08:25:13;;;;;;;;;8.50;8.50;;;;;31.77;46.65;100494.97;5039067;28;46144;-62
2023/08/25 08:27:40;;;;;;;;;8.25;8.25;;;;;31.63;47.04;100507.13;5020971;28;45418;-62
2023/08/25 08:30:06;;;;;;;;;7.00;7.00;;;;;31.41;47.17;100516.66;5039173;28;45573;-61
2023/08/25 08:32:35;;;;;;;;;5.75;4.00;;;;;31.30;47.68;100525.63;5038561;28;45332;-61
2023/08/25 08:35:00;;;;;;;;;3.00;3.00;;;;;31.13;47.92;100528.78;5038865;28;46444;-62
2023/08/25 08:37:25;;;;;;;;;2.75;2.75;;;;;31.18;47.69;100528.13;5038897;28;45280;-62
2023/08/25 08:39:51;;;;;;;;;3.00;3.00;;;;;31.19;47.27;100530.69;5039034;28;45428;-61
2023/08/25 08:42:17;;;;;;;;;4.00;4.00;;;;;31.29;47.90;100527.53;5038105;28;45638;-60
2023/08/25 08:44:47;;;;;;;;;4.25;3.50;;;;;31.33;47.72;100547.34;5037784;28;45403;-62
2023/08/25 08:47:14;;;;;;;;;3.75;3.25;;;;;31.28;47.97;100553.53;5038674;28;45258;-61
2023/08/25 08:49:40;;;;;;;;;2.75;2.75;;;;;31.30;47.37;100550.53;5038312;28;45360;-61
2023/08/25 08:52:07;;;;;;;;;4.00;4.00;;;;;31.23;47.61;100552.41;5038605;28;47134;-60
2023/08/25 08:54:35;;;;;;;;;2.25;2.00;;;;;31.33;47.64;100561.19;5038638;28;46122;-61
2023/08/25 08:57:01;;;;;;;;;2.75;2.75;;;;;31.03;47.58;100547.66;5038350;28;45330;-61
2023/08/25 08:59:26;;;;;;;;;2.50;2.50;;;;;31.05;47.24;100555.78;5023796;28;45515;-61
2023/08/25 09:01:53;;;;;;;;;4.25;2.50;;;;;31.09;46.64;100559.84;5038432;28;45341;-61
2023/08/25 09:04:20;;;;;;;;;2.00;2.00;;;;;30.88;46.85;100552.50;5037954;28;45357;-62
2023/08/25 09:06:51;;;;;;;;;2.50;1.50;;;;;30.81;46.91;100559.91;5037578;28;45431;-61
2023/08/25 09:09:19;;;;;;;;;1.25;1.25;;;;;30.80;46.75;100563.75;5038414;28;45352;-62
2023/08/25 09:11:45;;;;;;;;;1.50;1.50;;;;;30.62;47.00;100567.09;5038144;28;46005;-61
2023/08/25 09:14:11;;;;;;;;;1.75;1.75;;;;;30.70;46.56;100558.63;5037100;28;46144;-61
2023/08/25 09:16:36;;;;;;;;;1.75;1.75;;;;;30.61;46.83;100567.28;5037335;28;45559;-61
2023/08/25 09:19:03;;;;;;;;;1.00;1.00;;;;;30.69;46.45;100569.88;5037691;28;45479;-61
2023/08/25 09:21:29;;;;;;;;;1.50;1.50;;;;;30.66;46.74;100579.44;5038734;28;45241;-62
2023/08/25 09:23:59;;;;;;;;;1.25;1.25;;;;;30.56;46.56;100578.94;5023275;28;46822;-60
2023/08/25 09:26:25;;;;;;;;;1.50;1.50;;;;;30.50;46.88;100585.28;5041771;28;45215;-62
2023/08/25 09:28:53;;;;;;;;;1.75;1.75;;;;;30.56;46.27;100586.41;5041561;28;45416;-60
2023/08/25 09:31:29;;;;;;;;;2.00;2.00;;;;;30.48;46.94;100593.78;5041170;28;45480;-60
2023/08/25 09:34:06;;;;;;;;;2.50;2.00;;;;;30.54;46.38;100594.06;5040854;28;48129;-59
2023/08/25 09:36:32;;;;;;;;;3.00;3.00;;;;;30.43;46.25;100595.47;5041052;28;45298;-60
2023/08/25 09:38:58;;;;;;;;;2.00;2.00;;;;;30.44;46.90;100603.56;5041079;28;45428;-60
2023/08/25 09:41:28;;;;;;;;;2.00;2.00;;;;;30.45;46.63;100598.88;5036084;28;45447;-60
2023/08/25 09:44:02;;;;;;;;;1.75;1.75;;;;;30.38;46.50;100598.81;5040039;28;45793;-61
2023/08/25 09:46:32;;;;;;;;;0.50;0.50;;;;;30.43;46.33;100603.75;5040388;28;45361;-62
2023/08/25 09:49:05;;;;;;;;;0.75;0.75;;;;;30.40;45.85;100595.84;5040530;28;45495;-62
2023/08/25 09:51:41;;;;;;;;;1.75;1.75;;;;;30.43;45.99;100606.53;5040201;28;45289;-60
2023/08/25 09:54:16;;;;;;;;;3.00;1.75;;;;;30.37;44.96;100601.78;5041102;28;45343;-60
2023/08/25 09:56:43;;;;;;;;;2.75;2.00;;;;;30.35;45.58;100604.78;5039378;28;45435;-60
2023/08/25 09:59:11;;;;;;;;;4.25;2.00;;;;;30.47;45.38;100602.28;5041009;28;45330;-61
2023/08/25 10:01:39;;;;;;;;;1.50;1.50;;;;;30.53;44.53;100604.28;5040396;28;45854;-61
2023/08/25 10:04:05;;;;;;;;;1.50;1.50;;;;;30.61;44.64;100598.59;5041150;28;46048;-60
2023/08/25 10:06:32;;;;;;;;;2.25;2.25;;;;;30.79;44.75;100603.59;5040275;28;45365;-61
2023/08/25 10:09:01;;;;;;;;;3.25;3.25;;;;;31.04;44.48;100606.69;5041442;28;45357;-61
2023/08/25 10:11:29;;;;;;;;;2.00;2.00;;;;;30.78;43.96;100599.09;5040645;28;45481;-61
2023/08/25 10:13:56;;;;;;;;;2.00;2.00;;;;;30.87;44.45;100603.41;5040129;28;45407;-61
2023/08/25 10:16:25;;;;;;;;;2.00;2.00;;;;;30.94;44.22;100581.28;5041008;28;45267;-60
2023/08/25 10:18:55;;;;;;;;;3.75;2.50;;;;;30.84;43.93;100587.19;5040866;28;45403;-60
2023/08/25 10:21:21;;;;;;;;;4.00;2.00;;;;;30.73;44.39;100593.31;5040415;28;45518;-61
2023/08/25 10:23:50;;;;;;;;;2.50;1.50;;;;;30.90;43.58;100597.44;5039888;28;46326;-61
2023/08/25 10:26:16;;;;;;;;;1.75;1.75;;;;;30.86;43.36;100606.38;5039855;28;45329;-60
2023/08/25 10:28:44;;;;;;;;;4.00;2.75;;;;;30.86;43.04;100606.38;5040488;28;45419;-61
2023/08/25 10:31:09;;;;;;;;;4.75;4.00;;;;;30.86;43.36;100603.59;5040744;28;45439;-60
2023/08/25 10:33:49;;;;;;;;;3.25;2.75;;;;;30.82;43.70;100609.53;5030000;28;45681;-61
2023/08/25 10:36:16;;;;;;;;;3.00;3.00;;;;;30.92;42.91;100606.41;5040860;28;45285;-61
2023/08/25 10:38:45;;;;;;;;;3.25;3.25;;;;;31.02;43.37;100615.19;5040722;28;45486;-60
2023/08/25 10:41:16;;;;;;;;;2.50;2.00;;;;;31.10;42.73;100619.72;5040722;28;45486;-61
2023/08/25 10:43:46;;;;;;;;;3.75;3.75;;;;;30.99;42.90;100617.50;5040457;28;47277;-61
2023/08/25 10:46:12;;;;;;;;;5.50;4.00;;;;;30.83;43.62;100627.00;5040752;28;45282;-60
2023/08/25 10:48:38;;;;;;;;;3.75;3.75;;;;;30.78;43.34;100618.47;5040409;28;45516;-61
2023/08/25 10:51:20;;;;;;;;;3.00;3.00;;;;;30.89;43.95;100623.41;5045380;28;45408;-61
2023/08/25 10:53:49;;;;;;;;;5.75;4.00;;;;;30.88;43.21;100610.63;5041234;28;46190;-61
2023/08/25 10:56:25;;;;;;;;;5.00;4.00;;;;;30.98;43.61;100621.31;5040497;28;45558;-60
2023/08/25 10:59:10;;;;;;;;;5.00;4.50;;;;;30.96;43.58;100612.41;5040551;28;45284;-61
2023/08/25 11:01:38;;;;;;;;;5.50;5.50;;;;;30.87;43.38;100616.41;5039239;28;45327;-62
2023/08/25 11:04:04;;;;;;;;;4.75;4.75;;;;;30.94;43.58;100620.91;5040115;28;45455;-60
2023/08/25 11:06:40;;;;;;;;;4.00;4.00;;;;;30.87;43.74;100608.94;5038963;28;45674;-59
2023/08/25 11:09:08;;;;;;;;;5.00;5.00;;;;;30.84;43.23;100615.75;5034214;28;45428;-62
2023/08/25 11:11:35;;;;;;;;;4.50;4.50;;;;;30.91;44.12;100625.97;5040035;28;45454;-61
2023/08/25 11:14:00;;;;;;;;;8.25;8.25;;;;;31.00;43.38;100619.22;5039777;28;46455;-62
2023/08/25 11:16:26;;;;;;;;;6.75;6.75;;;;;31.03;42.60;100616.91;5039893;28;45324;-58
2023/08/25 11:18:52;;;;;;;;;6.50;6.50;;;;;30.79;43.04;100618.25;5040022;28;45396;-59
2023/08/25 11:21:21;;;;;;;;;8.75;8.50;;;;;30.62;43.52;100629.88;5039976;28;45423;-60
2023/08/25 11:23:47;;;;;;;;;7.75;6.75;;;;;30.79;43.49;100625.72;5039334;28;45343;-60
2023/08/25 11:26:19;;;;;;;;;10.75;8.50;;;;;30.89;42.84;100633.63;5039652;28;53249;-61
2023/08/25 11:28:49;;;;;;;;;6.75;6.75;;;;;30.82;42.28;100626.16;5042023;28;45404;-59
2023/08/25 11:31:15;;;;;;;;;10.50;8.75;;;;;30.88;42.28;100620.88;5038835;28;45561;-60
2023/08/25 11:33:40;;;;;;;;;6.50;6.50;;;;;30.99;42.30;100621.13;5039544;28;46936;-60
2023/08/25 11:36:06;;;;;;;;;8.75;6.50;;;;;31.18;42.19;100616.75;5042125;28;45342;-59
2023/08/25 11:38:31;;;;;;;;;7.00;7.00;;;;;31.52;41.98;100613.88;5040594;28;45844;-60
2023/08/25 11:40:57;;;;;;;;;8.50;8.50;;;;;31.69;40.95;100619.06;5039339;28;45511;-60
2023/08/25 11:43:32;;;;;;;;;9.75;9.75;;;;;31.88;40.81;100615.47;5039687;28;46268;-61
2023/08/25 11:45:58;;;;;;;;;9.75;8.50;;;;;32.01;40.70;100617.38;5039161;28;45462;-61
2023/08/25 11:48:23;;;;;;;;;10.50;10.50;;;;;32.21;40.12;100612.72;5038784;28;45364;-61
2023/08/25 11:50:49;;;;;;;;;15.50;14.50;;;;;32.33;39.64;100620.16;5039452;28;45398;-62
2023/08/25 11:53:14;;;;;;;;;15.50;12.25;;;;;32.12;40.17;100620.38;5042014;28;46189;-59
2023/08/25 11:55:39;;;;;;;;;12.50;12.25;;;;;32.18;40.08;100615.91;5050248;28;45351;-60
2023/08/25 11:58:07;;;;;;;;;15.00;15.00;;;;;32.27;39.95;100626.59;5039199;28;45402;-61
2023/08/25 12:00:37;;;;;;;;;17.25;17.25;;;;;32.18;39.64;100621.47;5024552;28;45526;-61
2023/08/25 12:03:02;;;;;;;;;15.25;13.00;;;;;32.21;40.05;100621.91;5034107;28;45871;-60
2023/08/25 12:05:30;;;;;;;;;18.00;16.50;;;;;32.03;40.08;100627.19;5038646;28;45546;-61
2023/08/25 12:08:00;;;;;;;;;18.25;16.75;;;;;31.70;39.99;100640.19;5038643;28;45472;-59
2023/08/25 12:10:25;;;;;;;;;17.50;14.75;;;;;31.46;39.96;100639.66;5039058;28;45543;-60
2023/08/25 12:12:53;;;;;;;;;16.25;14.25;;;;;31.37;39.76;100640.06;5037306;28;45376;-60
2023/08/25 12:15:18;;;;;;;;;13.25;13.25;;;;;31.25;40.10;100636.16;5039017;28;45344;-60
2023/08/25 12:17:47;;;;;;;;;15.50;14.50;;;;;31.38;40.02;100628.78;5038406;28;45556;-60
2023/08/25 12:20:14;;;;;;;;;15.75;15.75;;;;;31.48;39.75;100639.44;5038921;28;46501;-61
2023/08/25 12:22:57;;;;;;;;;15.75;15.75;;;;;31.22;40.52;100642.16;5038527;28;45311;-60
2023/08/25 12:25:23;;;;;;;;;17.75;17.25;;;;;30.98;40.37;100635.16;5038768;28;45275;-60
2023/08/25 12:27:49;;;;;;;;;12.50;12.50;;;;;30.90;40.39;100632.56;5038859;28;45345;-61
2023/08/25 12:30:14;;;;;;;;;17.50;16.00;;;;;31.08;40.84;100630.13;5038347;28;45452;-61
2023/08/25 12:32:40;;;;;;;;;13.25;13.00;;;;;31.23;40.72;100636.38;5038267;28;45239;-60
2023/08/25 12:35:05;;;;;;;;;14.25;14.25;;;;;31.36;40.72;100641.97;5037900;28;45301;-61
2023/08/25 12:37:31;;;;;;;;;14.75;13.75;;;;;31.20;40.14;100636.81;5037936;28;45305;-63
2023/08/25 12:39:56;;;;;;;;;16.00;15.00;;;;;31.33;40.55;100650.69;5038542;28;45424;-60
2023/08/25 12:42:21;;;;;;;;;12.75;12.00;;;;;31.14;40.33;100655.09;5038503;28;46803;-61
2023/08/25 12:44:46;;;;;;;;;17.75;13.00;;;;;31.32;40.02;100656.44;5038510;28;45364;-61
2023/08/25 12:47:12;;;;;;;;;13.00;13.00;;;;;31.27;40.21;100654.31;5027933;28;45337;-59
2023/08/25 12:49:37;;;;;;;;;9.25;9.25;;;;;31.30;40.50;100651.13;5038566;28;45437;-59
2023/08/25 12:52:03;;;;;;;;;12.50;12.50;;;;;31.42;40.05;100662.44;5038546;28;46300;-61
2023/08/25 12:54:28;;;;;;;;;11.00;7.75;;;;;31.45;40.57;100656.50;5038483;28;45404;-62
2023/08/25 12:56:54;;;;;;;;;12.50;11.00;;;;;31.48;40.18;100662.47;5037904;28;45337;-60
2023/08/25 12:59:20;;;;;;;;;9.75;9.75;;;;;31.36;40.42;100654.97;5038302;28;45396;-60
2023/08/25 13:01:46;;;;;;;;;12.75;10.75;;;;;31.37;40.55;100645.59;5037528;28;45348;-61
2023/08/25 13:04:11;;;;;;;;;13.25;13.25;;;;;31.28;40.62;100646.84;5038294;28;45301;-60
2023/08/25 13:06:37;;;;;;;;;10.75;10.75;;;;;31.39;40.34;100660.94;5038548;28;45265;-62
2023/08/25 13:09:02;;;;;;;;;8.25;8.00;;;;;31.43;40.48;100658.63;5038226;28;45331;-61
2023/08/25 13:11:28;;;;;;;;;9.00;9.00;;;;;31.45;40.41;100637.97;5038331;28;45242;-61
2023/08/25 13:13:53;;;;;;;;;6.75;6.00;;;;;31.40;40.37;100650.72;5038349;28;45451;-60
2023/08/25 13:16:18;;;;;;;;;9.25;8.50;;;;;31.23;40.25;100652.13;5038048;28;45319;-61
2023/08/25 13:18:44;;;;;;;;;9.50;7.00;;;;;31.25;40.67;100647.25;5037865;28;45464;-59
2023/08/25 13:21:11;;;;;;;;;6.25;6.25;;;;;31.22;40.69;100645.75;5037491;28;57553;-59
2023/08/25 13:23:36;;;;;;;;;8.75;7.25;;;;;31.30;40.96;100636.41;5037984;28;45655;-59
2023/08/25 13:26:02;;;;;;;;;9.00;7.75;;;;;31.49;39.96;100630.91;5036829;28;45432;-62
2023/08/25 13:28:27;;;;;;;;;6.50;6.50;;;;;31.55;40.15;100643.09;5037992;28;45580;-61
2023/08/25 13:30:53;;;;;;;;;7.00;7.00;;;;;31.34;40.63;100637.69;5019207;28;45597;-61
2023/08/25 13:33:18;;;;;;;;;6.50;6.50;;;;;31.34;39.88;100634.94;5037616;28;45387;-61
2023/08/25 13:35:43;;;;;;;;;8.25;6.00;;;;;31.20;39.91;100634.91;5037958;28;48771;-60
2023/08/25 13:38:09;;;;;;;;;6.25;5.00;;;;;31.04;40.14;100635.22;5037200;28;54378;-60
2023/08/25 13:40:35;;;;;;;;;7.00;7.00;;;;;31.08;40.46;100638.44;5037662;28;45335;-59
2023/08/25 13:43:01;;;;;;;;;7.50;7.50;;;;;30.84;40.35;100625.94;5037680;28;45466;-60
2023/08/25 13:45:26;;;;;;;;;9.00;5.50;;;;;31.02;40.50;100634.56;5038237;28;45318;-60
2023/08/25 13:47:51;;;;;;;;;7.75;6.25;;;;;31.01;41.01;100641.16;5037625;28;45163;-61
2023/08/25 13:50:17;;;;;;;;;7.00;6.75;;;;;31.13;40.33;100641.47;5019868;28;46158;-60
2023/08/25 13:52:42;;;;;;;;;6.25;6.00;;;;;31.15;40.65;100633.78;5037342;28;56254;-60
2023/08/25 13:55:08;;;;;;;;;7.50;6.00;;;;;31.20;40.70;100632.13;5037698;28;47522;-59
2023/08/25 13:57:35;;;;;;;;;5.25;5.25;;;;;31.16;40.30;100636.34;5037033;28;45443;-60
2023/08/25 14:00:05;;;;;;;;;6.75;6.75;;;;;31.27;40.28;100632.13;5037780;28;45482;-61
2023/08/25 14:02:31;;;;;;;;;4.50;4.50;;;;;31.35;40.02;100637.50;5036335;28;45439;-61
2023/08/25 14:04:56;;;;;;;;;7.00;6.50;;;;;31.30;40.61;100637.28;5037770;28;45357;-59
2023/08/25 14:07:21;;;;;;;;;6.25;5.00;;;;;31.20;39.71;100625.72;5037264;28;51169;-60
2023/08/25 14:09:47;;;;;;;;;6.00;6.00;;;;;31.35;40.33;100634.72;5039197;28;50488;-60
2023/08/25 14:12:12;;;;;;;;;6.75;6.75;;;;;31.27;39.54;100639.59;5041075;28;45281;-61
2023/08/25 14:14:37;;;;;;;;;5.75;4.75;;;;;31.36;39.62;100625.34;5040112;28;50871;-61
2023/08/25 14:17:05;;;;;;;;;5.75;5.75;;;;;31.61;39.92;100624.78;5037479;28;45513;-60
2023/08/25 14:19:30;;;;;;;;;9.25;6.25;;;;;31.66;39.13;100622.25;5040567;28;45289;-61
2023/08/25 14:21:56;;;;;;;;;5.50;5.50;;;;;31.67;39.25;100619.28;5044944;28;45474;-59
2023/08/25 14:24:21;;;;;;;;;5.75;5.75;;;;;31.65;39.43;100626.06;5041155;28;46508;-60
2023/08/25 14:26:47;;;;;;;;;7.00;6.00;;;;;31.70;38.89;100629.09;5047207;28;45586;-60
2023/08/25 14:29:13;;;;;;;;;7.75;5.25;;;;;31.71;38.78;100628.03;5048521;28;45878;-60
2023/08/25 14:31:39;;;;;;;;;6.00;6.00;;;;;31.78;38.80;100632.50;5047850;28;46015;-61
2023/08/25 14:34:05;;;;;;;;;6.25;6.00;;;;;31.77;38.32;100616.94;5052307;28;45593;-61
2023/08/25 14:36:33;;;;;;;;;4.00;3.75;;;;;31.68;38.86;100620.13;5053258;28;45345;-62
2023/08/25 14:38:59;;;;;;;;;3.50;3.50;;;;;31.67;38.98;100630.34;5040470;28;46247;-60
2023/08/25 14:41:26;;;;;;;;;4.00;3.75;;;;;31.58;38.71;100631.59;5040292;28;45413;-61
2023/08/25 14:43:52;;;;;;;;;4.25;4.25;;;;;31.58;38.89;100626.03;5040656;28;45197;-60
2023/08/25 14:46:19;;;;;;;;;1.75;1.75;;;;;31.54;38.80;100625.63;5039607;28;45445;-61
2023/08/25 14:48:46;;;;;;;;;5.50;3.00;;;;;31.39;37.92;100626.88;5040579;28;46930;-60
2023/08/25 14:51:13;;;;;;;;;5.75;5.00;;;;;31.32;38.21;100634.28;5039756;28;45485;-60
2023/08/25 14:53:38;;;;;;;;;2.00;2.00;;;;;31.28;38.66;100622.78;5040859;28;45269;-61
2023/08/25 14:56:03;;;;;;;;;4.00;4.00;;;;;31.41;38.35;100631.13;5040449;28;45328;-60
2023/08/25 14:58:29;;;;;;;;;4.25;4.25;;;;;31.51;38.32;100639.88;5040044;28;58758;-60
2023/08/25 15:00:54;;;;;;;;;3.50;3.50;;;;;31.56;37.61;100639.25;5040631;28;45453;-60
2023/08/25 15:03:20;;;;;;;;;3.25;2.75;;;;;31.64;37.20;100641.88;5039969;28;45468;-62
2023/08/25 15:05:45;;;;;;;;;3.75;3.75;;;;;31.77;37.56;100636.34;5039136;28;46836;-61
2023/08/25 15:08:11;;;;;;;;;3.50;3.50;;;;;31.79;37.00;100637.00;5040025;28;56716;-61
2023/08/25 15:10:40;;;;;;;;;3.75;3.75;;;;;31.72;36.78;100618.66;5040484;28;45296;-62
2023/08/25 15:13:06;;;;;;;;;6.75;5.75;;;;;31.71;36.71;100628.88;5039606;28;45627;-59
2023/08/25 15:15:31;;;;;;;;;4.50;4.50;;;;;31.83;36.20;100629.94;5039850;28;53826;-57
